Time;durP1;ratioP1;P1;durP2;ratioP2;P2;SDS_P1;SDS_P2;PMS_P1;PMS_P2;Temp;Humidity;BMP_temperature;BMP_pressure;BME280_temperature;BME280_humidity;BME280_pressure;Samples;Min_cycle;Max_cycle;Signal;HPM_P1;HPM_P2
2022/12/23 00:00:12;;;;;;;1.00;0.83;;;8.30;99.90;;;;;;6177847;23;20404;-75
2022/12/23 00:02:39;;;;;;;2.80;1.30;;;8.40;99.90;;;;;;6177399;23;20410;-74
2022/12/23 00:05:06;;;;;;;2.40;1.43;;;8.40;99.90;;;;;;6177432;23;20924;-75
2022/12/23 00:07:33;;;;;;;2.30;1.40;;;8.30;99.90;;;;;;6177973;23;20412;-75
2022/12/23 00:10:02;;;;;;;3.03;1.40;;;8.20;99.90;;;;;;6178153;23;20428;-74
2022/12/23 00:15:13;;;;;;;1.40;1.20;;;7.90;99.90;;;;;;6179623;23;20399;-75
2022/12/23 00:17:43;;;;;;;1.80;1.07;;;7.90;99.90;;;;;;6179607;23;20412;-72
2022/12/23 00:20:12;;;;;;;4.67;1.30;;;8.00;99.90;;;;;;6179925;23;20407;-74
2022/12/23 00:25:39;;;;;;;3.00;1.27;;;7.90;99.90;;;;;;6160047;23;20419;-73
2022/12/23 00:28:06;;;;;;;1.83;1.33;;;8.00;99.90;;;;;;6180049;23;20435;-72
2022/12/23 00:30:32;;;;;;;1.33;1.20;;;7.90;99.90;;;;;;6179490;23;20408;-75
2022/12/23 00:32:59;;;;;;;2.13;1.00;;;7.90;99.90;;;;;;6179880;23;20780;-75
2022/12/23 00:35:29;;;;;;;3.40;1.27;;;7.90;99.90;;;;;;6179905;23;20408;-74
2022/12/23 00:37:55;;;;;;;8.30;1.50;;;7.90;99.90;;;;;;6179646;23;20520;-75
2022/12/23 00:43:08;;;;;;;2.23;1.20;;;7.60;99.90;;;;;;6179575;23;20876;-73
2022/12/23 00:45:35;;;;;;;1.77;1.13;;;7.70;99.90;;;;;;6179592;23;20926;-74
2022/12/23 00:50:46;;;;;;;1.97;1.27;;;7.70;99.90;;;;;;6179809;23;20522;-76
2022/12/23 00:53:12;;;;;;;1.70;1.23;;;7.60;99.90;;;;;;6179469;23;20443;-74
2022/12/23 00:55:40;;;;;;;1.23;0.90;;;7.60;99.90;;;;;;6179718;23;20413;-75
2022/12/23 00:58:07;;;;;;;2.03;1.23;;;7.70;99.90;;;;;;6179828;23;20400;-75
2022/12/23 01:06:03;;;;;;;2.90;1.30;;;7.50;99.90;;;;;;6179912;23;20388;-73
2022/12/23 01:08:30;;;;;;;1.40;1.10;;;7.50;99.90;;;;;;6180605;23;20412;-76
2022/12/23 01:11:03;;;;;;;3.57;1.30;;;7.50;99.90;;;;;;6180662;23;20438;-75
2022/12/23 01:13:30;;;;;;;1.40;1.10;;;7.50;99.90;;;;;;6179438;23;20436;-74
2022/12/23 01:16:00;;;;;;;2.97;1.30;;;7.50;99.90;;;;;;6179373;23;20745;-75
2022/12/23 01:18:27;;;;;;;1.70;1.30;;;7.40;99.90;;;;;;6179706;23;20401;-73
2022/12/23 01:20:54;;;;;;;2.40;1.00;;;7.40;99.90;;;;;;6179649;23;20404;-74
2022/12/23 01:23:20;;;;;;;1.13;1.00;;;7.40;99.90;;;;;;6179698;23;20393;-74
2022/12/23 01:25:55;;;;;;;2.03;0.90;;;7.50;99.90;;;;;;6179413;23;20404;-76
2022/12/23 01:28:23;;;;;;;1.37;1.20;;;7.60;99.90;;;;;;6179079;23;20786;-76
2022/12/23 01:30:50;;;;;;;1.67;1.00;;;7.70;99.90;;;;;;6179184;23;20750;-76
2022/12/23 01:33:17;;;;;;;1.90;1.50;;;7.70;99.90;;;;;;6178783;23;20440;-77
2022/12/23 01:35:44;;;;;;;1.30;0.90;;;7.70;99.90;;;;;;6179139;23;20511;-76
2022/12/23 01:38:11;;;;;;;2.23;1.47;;;7.80;99.90;;;;;;6179450;23;20419;-75
2022/12/23 01:40:39;;;;;;;2.60;2.50;;;7.90;99.90;;;;;;6179498;23;20426;-75
2022/12/23 01:43:05;;;;;;;1.03;0.90;;;7.80;99.90;;;;;;6178928;23;20412;-75
2022/12/23 01:45:33;;;;;;;1.90;1.73;;;7.70;99.90;;;;;;6178889;23;20439;-75
2022/12/23 01:48:04;;;;;;;1.97;1.37;;;7.60;99.90;;;;;;6178606;23;20524;-76
2022/12/23 01:50:35;;;;;;;1.40;1.00;;;7.60;99.90;;;;;;6179047;23;20795;-75
2022/12/23 01:53:06;;;;;;;2.77;1.57;;;7.70;99.90;;;;;;6179011;23;20428;-75
2022/12/23 01:55:37;;;;;;;1.13;1.03;;;7.70;99.90;;;;;;6178906;23;20487;-76
2022/12/23 01:58:08;;;;;;;2.17;1.53;;;7.70;99.90;;;;;;6179274;23;20745;-76
2022/12/23 02:12:04;;;;;;;3.60;1.20;;;7.90;99.90;;;;;;6178888;23;20715;-76
2022/12/23 02:17:40;;;;;;;1.33;1.23;;;7.90;99.90;;;;;;6152873;23;21242;-74
2022/12/23 02:20:29;;;;;;;1.67;1.50;;;8.00;99.90;;;;;;6178999;23;20495;-75
2022/12/23 02:23:15;;;;;;;3.50;1.30;;;7.90;99.90;;;;;;6178335;23;20389;-76
2022/12/23 02:26:00;;;;;;;1.00;0.80;;;7.90;99.90;;;;;;6178768;23;20393;-74
2022/12/23 02:28:47;;;;;;;1.40;1.03;;;7.90;99.90;;;;;;6177928;23;20963;-74
2022/12/23 02:31:23;;;;;;;1.00;0.87;;;8.00;99.90;;;;;;6178906;23;20897;-76
2022/12/23 02:33:58;;;;;;;2.13;1.07;;;8.00;99.90;;;;;;6178482;23;20439;-75
2022/12/23 02:36:36;;;;;;;1.00;0.80;;;7.90;99.90;;;;;;6178534;23;20422;-75
2022/12/23 02:39:08;;;;;;;1.53;1.00;;;7.90;99.90;;;;;;6178731;23;20413;-76
2022/12/23 02:41:41;;;;;;;3.40;1.20;;;7.90;99.90;;;;;;6178917;23;20416;-74
2022/12/23 02:44:17;;;;;;;2.10;0.90;;;8.10;99.90;;;;;;6179556;23;20914;-74
2022/12/23 02:46:47;;;;;;;1.00;0.80;;;8.20;99.90;;;;;;6178860;23;20410;-74
2022/12/23 02:49:18;;;;;;;1.43;1.33;;;8.40;99.90;;;;;;6178593;23;20767;-76
2022/12/23 02:51:49;;;;;;;3.20;1.00;;;8.50;99.90;;;;;;6178911;23;20753;-76
2022/12/23 02:54:22;;;;;;;1.77;0.80;;;8.70;99.90;;;;;;6181226;23;20442;-76
2022/12/23 02:56:52;;;;;;;2.17;0.90;;;8.90;99.90;;;;;;6181138;23;20424;-76
2022/12/23 02:59:23;;;;;;;0.80;0.70;;;8.90;99.90;;;;;;6181769;23;20439;-77
2022/12/23 03:01:53;;;;;;;1.37;1.00;;;9.00;99.90;;;;;;6179487;23;20870;-77
2022/12/23 03:04:19;;;;;;;0.90;0.70;;;9.10;99.90;;;;;;6179947;23;20400;-75
2022/12/23 03:06:51;;;;;;;0.90;0.70;;;9.10;99.90;;;;;;6179304;23;20443;-75
2022/12/23 03:09:29;;;;;;;1.30;0.83;;;9.00;99.90;;;;;;6178790;23;20965;-75
2022/12/23 03:12:03;;;;;;;0.83;0.70;;;9.00;99.90;;;;;;6178988;23;20403;-75
2022/12/23 03:14:49;;;;;;;2.80;2.13;;;9.10;99.90;;;;;;6178945;23;20464;-75
2022/12/23 03:17:36;;;;;;;1.10;0.80;;;9.20;99.90;;;;;;6179004;23;20389;-75
2022/12/23 03:20:12;;;;;;;0.90;0.70;;;9.20;99.90;;;;;;6178205;23;20802;-75
2022/12/23 03:22:47;;;;;;;2.03;0.70;;;9.30;99.90;;;;;;6179737;23;20404;-75
2022/12/23 03:25:21;;;;;;;1.00;0.70;;;9.30;99.90;;;;;;6178042;23;20419;-75
2022/12/23 03:27:54;;;;;;;1.00;0.70;;;9.30;99.90;;;;;;6177930;23;20511;-75
2022/12/23 03:30:22;;;;;;;0.90;0.73;;;9.40;99.90;;;;;;6178870;23;20436;-75
2022/12/23 03:32:54;;;;;;;1.30;0.90;;;9.50;99.90;;;;;;6178658;23;20531;-75
2022/12/23 03:35:25;;;;;;;1.00;0.87;;;9.50;99.90;;;;;;6179710;23;20394;-75
2022/12/23 03:37:54;;;;;;;1.83;0.80;;;9.50;99.90;;;;;;6178604;23;20493;-75
2022/12/23 03:40:24;;;;;;;0.80;0.63;;;9.50;99.90;;;;;;6179496;23;20404;-75
2022/12/23 03:42:57;;;;;;;0.97;0.70;;;9.60;99.90;;;;;;6179347;23;20407;-75
2022/12/23 03:45:29;;;;;;;1.00;0.70;;;9.60;99.90;;;;;;6178643;23;20792;-76
2022/12/23 03:48:02;;;;;;;1.80;0.90;;;9.70;99.90;;;;;;6178710;23;20494;-76
2022/12/23 03:50:32;;;;;;;1.20;0.70;;;9.70;99.90;;;;;;6177989;23;20745;-74
2022/12/23 03:53:05;;;;;;;1.00;0.80;;;9.70;99.90;;;;;;6178530;23;20535;-75
2022/12/23 03:55:37;;;;;;;1.23;0.93;;;9.70;99.90;;;;;;6178369;23;20393;-74
2022/12/23 03:58:13;;;;;;;0.90;0.70;;;9.80;99.90;;;;;;6178494;23;20416;-74
2022/12/23 04:00:46;;;;;;;1.40;0.90;;;9.70;99.90;;;;;;6178068;23;20431;-78
2022/12/23 04:03:21;;;;;;;1.00;0.90;;;9.70;99.90;;;;;;6178171;23;20404;-75
2022/12/23 04:05:53;;;;;;;1.00;0.73;;;9.70;99.90;;;;;;6178447;23;20392;-76
2022/12/23 04:08:26;;;;;;;2.37;0.90;;;9.80;99.90;;;;;;6178548;23;20474;-75
2022/12/23 04:10:53;;;;;;;2.30;0.80;;;9.90;99.90;;;;;;6178589;23;20420;-76
2022/12/23 04:13:20;;;;;;;1.03;0.70;;;9.80;99.90;;;;;;6178470;23;20443;-75
2022/12/23 04:15:47;;;;;;;2.10;0.70;;;9.90;99.90;;;;;;6178742;23;20416;-75
2022/12/23 04:18:16;;;;;;;1.87;1.03;;;9.90;99.90;;;;;;6177686;23;20418;-76
2022/12/23 04:20:42;;;;;;;1.03;0.80;;;9.80;99.90;;;;;;6178428;23;20753;-77
2022/12/23 04:23:10;;;;;;;1.87;0.70;;;9.80;99.90;;;;;;6178355;23;20415;-75
2022/12/23 04:25:37;;;;;;;1.87;0.80;;;9.70;99.90;;;;;;6178989;23;20471;-76
2022/12/23 04:28:04;;;;;;;0.90;0.80;;;9.70;99.90;;;;;;6177530;23;20444;-77
2022/12/23 04:30:31;;;;;;;0.80;0.60;;;9.60;99.90;;;;;;6177943;23;20493;-76
2022/12/23 04:32:57;;;;;;;0.90;0.77;;;9.70;99.90;;;;;;6178680;23;21007;-75
2022/12/23 04:35:26;;;;;;;0.80;0.73;;;9.80;99.90;;;;;;6178535;23;20898;-76
2022/12/23 04:37:53;;;;;;;1.20;0.60;;;9.90;99.90;;;;;;6178848;23;20428;-75
2022/12/23 04:40:19;;;;;;;3.13;0.80;;;9.90;99.90;;;;;;6179508;23;20913;-75
2022/12/23 04:42:47;;;;;;;1.73;0.80;;;9.90;99.90;;;;;;6177998;23;20447;-79
2022/12/23 04:45:14;;;;;;;1.33;0.70;;;9.90;99.90;;;;;;6152027;23;20408;-74
2022/12/23 04:47:41;;;;;;;0.80;0.60;;;10.00;99.90;;;;;;6177681;23;20400;-74
2022/12/23 04:50:14;;;;;;;1.30;0.70;;;9.90;99.90;;;;;;6177656;23;20424;-75
2022/12/23 04:55:42;;;;;;;1.63;0.60;;;9.90;99.90;;;;;;6152194;23;20420;-76
2022/12/23 04:58:08;;;;;;;1.07;0.77;;;10.00;99.90;;;;;;6179988;23;20462;-75
2022/12/23 05:00:35;;;;;;;1.00;0.70;;;10.00;99.90;;;;;;6180002;23;20721;-76
2022/12/23 05:03:02;;;;;;;1.47;0.77;;;10.00;99.90;;;;;;6181701;23;20431;-75
2022/12/23 05:05:29;;;;;;;2.17;0.80;;;10.10;99.90;;;;;;6184177;23;20415;-81
2022/12/23 05:08:05;;;;;;;0.80;0.70;;;10.10;99.90;;;;;;6178997;23;20742;-78
2022/12/23 05:10:32;;;;;;;1.30;0.70;;;10.00;99.90;;;;;;6179243;23;20882;-75
2022/12/23 05:12:59;;;;;;;0.93;0.83;;;10.10;99.90;;;;;;6177840;23;20416;-76
2022/12/23 05:15:31;;;;;;;0.80;0.70;;;10.00;99.90;;;;;;6178761;23;20504;-74
2022/12/23 05:18:01;;;;;;;1.03;0.77;;;10.00;99.90;;;;;;6178812;23;20380;-86
2022/12/23 05:20:28;;;;;;;1.60;0.80;;;10.10;99.90;;;;;;6179681;23;20419;-72
2022/12/23 05:22:55;;;;;;;1.73;1.10;;;10.00;99.90;;;;;;6179594;23;20446;-74
2022/12/23 05:25:24;;;;;;;0.90;0.70;;;10.00;99.90;;;;;;6179953;23;20474;-79
2022/12/23 05:27:51;;;;;;;1.00;0.90;;;9.90;99.90;;;;;;6179148;23;20927;-79
2022/12/23 05:30:18;;;;;;;0.90;0.73;;;9.80;99.90;;;;;;6179191;23;21047;-74
2022/12/23 05:32:45;;;;;;;1.47;1.00;;;9.80;99.90;;;;;;6179048;23;20411;-76
2022/12/23 05:35:12;;;;;;;0.80;0.60;;;9.80;99.90;;;;;;6178989;23;20444;-73
2022/12/23 05:37:38;;;;;;;0.80;0.60;;;9.90;99.90;;;;;;6179492;23;20487;-74
2022/12/23 05:40:06;;;;;;;1.03;0.80;;;10.00;99.90;;;;;;6179138;23;20404;-74
2022/12/23 05:42:35;;;;;;;1.00;0.67;;;10.00;99.90;;;;;;6178881;23;20433;-75
2022/12/23 05:45:02;;;;;;;0.87;0.80;;;10.10;99.90;;;;;;6178896;23;20495;-75
2022/12/23 05:47:28;;;;;;;0.90;0.80;;;10.00;99.90;;;;;;6179400;23;20416;-74
2022/12/23 05:49:55;;;;;;;0.90;0.70;;;10.10;99.90;;;;;;6178595;23;20941;-72
2022/12/23 05:52:22;;;;;;;0.90;0.73;;;10.10;99.90;;;;;;6178924;23;20412;-74
2022/12/23 05:54:49;;;;;;;1.10;0.80;;;10.10;99.90;;;;;;6178472;23;20444;-74
2022/12/23 05:57:16;;;;;;;0.80;0.70;;;10.10;99.90;;;;;;6179182;23;20419;-73
2022/12/23 05:59:44;;;;;;;1.10;0.80;;;10.10;99.90;;;;;;6178570;23;20499;-75
2022/12/23 06:02:11;;;;;;;0.97;0.73;;;10.10;99.90;;;;;;6179297;23;20400;-74
2022/12/23 06:04:43;;;;;;;0.93;0.70;;;10.10;99.90;;;;;;6179106;23;20404;-85
2022/12/23 06:07:10;;;;;;;2.43;0.70;;;10.20;99.90;;;;;;6179431;23;20404;-78
2022/12/23 06:09:37;;;;;;;0.90;0.70;;;10.30;99.90;;;;;;6179213;23;20438;-75
2022/12/23 06:12:04;;;;;;;1.13;0.80;;;10.30;99.90;;;;;;6179127;23;20757;-77
2022/12/23 06:14:34;;;;;;;0.90;0.70;;;10.40;99.90;;;;;;6179618;23;20839;-83
2022/12/23 06:17:02;;;;;;;1.10;0.90;;;10.40;99.90;;;;;;6179522;23;20400;-74
2022/12/23 06:19:30;;;;;;;1.70;0.70;;;10.50;99.90;;;;;;6178725;23;20522;-77
2022/12/23 06:21:57;;;;;;;0.80;0.70;;;10.50;99.90;;;;;;6179005;23;20407;-74
2022/12/23 06:24:24;;;;;;;1.70;0.80;;;10.50;99.90;;;;;;6179110;23;20404;-73
2022/12/23 06:26:50;;;;;;;1.43;0.60;;;10.40;99.90;;;;;;6178240;23;20397;-74
2022/12/23 06:29:17;;;;;;;1.40;0.80;;;10.40;99.90;;;;;;6178428;23;20444;-76
2022/12/23 06:31:50;;;;;;;0.90;0.80;;;10.40;99.90;;;;;;6179255;23;20451;-82
2022/12/23 06:34:20;;;;;;;4.30;1.13;;;10.40;99.90;;;;;;6178935;23;20432;-75
2022/12/23 06:36:47;;;;;;;1.00;0.70;;;10.50;99.90;;;;;;6178345;23;20408;-71
2022/12/23 06:39:14;;;;;;;1.10;0.80;;;10.50;99.90;;;;;;6179057;23;20408;-76
2022/12/23 06:41:41;;;;;;;1.27;0.80;;;10.50;99.90;;;;;;6178973;23;20479;-76
2022/12/23 06:44:16;;;;;;;1.30;1.03;;;10.50;99.90;;;;;;6178558;23;20510;-76
2022/12/23 06:46:43;;;;;;;0.97;0.87;;;10.50;99.90;;;;;;6178739;23;20398;-73
2022/12/23 06:49:10;;;;;;;1.00;0.80;;;10.60;99.90;;;;;;6178776;23;20431;-80
2022/12/23 06:51:39;;;;;;;1.17;0.80;;;10.60;99.90;;;;;;6176884;23;20446;-78
2022/12/23 06:54:06;;;;;;;1.10;0.80;;;10.60;99.90;;;;;;6177335;23;20523;-78
2022/12/23 06:56:36;;;;;;;0.90;0.70;;;10.60;99.90;;;;;;6178064;23;20747;-77
2022/12/23 06:59:03;;;;;;;1.10;0.80;;;10.70;99.90;;;;;;6177794;23;20447;-77
2022/12/23 07:01:30;;;;;;;3.40;1.10;;;10.60;99.90;;;;;;6178975;23;20428;-79
2022/12/23 07:03:57;;;;;;;1.37;1.00;;;10.60;99.90;;;;;;6178483;23;20397;-79
2022/12/23 07:06:24;;;;;;;2.50;0.90;;;10.50;99.90;;;;;;6176966;23;20412;-74
2022/12/23 07:08:52;;;;;;;0.90;0.80;;;10.60;99.90;;;;;;6177644;23;20646;-73
2022/12/23 07:11:19;;;;;;;1.10;0.90;;;10.60;99.90;;;;;;6177878;23;20894;-73
2022/12/23 07:13:46;;;;;;;1.07;0.97;;;10.60;99.90;;;;;;6177638;23;20436;-74
2022/12/23 07:16:13;;;;;;;1.00;0.90;;;10.50;99.90;;;;;;6177398;23;20531;-74
2022/12/23 07:18:40;;;;;;;3.43;0.83;;;10.50;99.90;;;;;;6177458;23;20577;-74
2022/12/23 07:21:07;;;;;;;1.30;0.90;;;10.40;99.90;;;;;;6178062;23;20412;-74
2022/12/23 07:23:34;;;;;;;1.00;0.77;;;10.40;99.90;;;;;;6177458;23;20426;-73
2022/12/23 07:26:02;;;;;;;1.57;0.80;;;10.40;99.90;;;;;;6177376;23;20860;-74
2022/12/23 07:28:29;;;;;;;1.00;0.80;;;10.50;99.90;;;;;;6176897;23;20442;-73
2022/12/23 07:30:56;;;;;;;2.43;0.80;;;10.60;99.90;;;;;;6177404;23;20412;-73
2022/12/23 07:33:22;;;;;;;3.13;0.97;;;10.60;99.90;;;;;;6177031;23;20400;-73
2022/12/23 07:35:49;;;;;;;0.90;0.80;;;10.60;99.90;;;;;;6177726;23;20448;-74
2022/12/23 07:38:16;;;;;;;0.93;0.83;;;10.70;99.90;;;;;;6177784;23;20408;-73
2022/12/23 07:40:43;;;;;;;0.90;0.70;;;10.60;99.90;;;;;;6178142;23;20408;-73
2022/12/23 07:43:23;;;;;;;1.30;0.80;;;10.70;99.90;;;;;;6181142;23;20400;-79
2022/12/23 07:45:50;;;;;;;1.00;0.80;;;10.60;99.90;;;;;;6180003;23;20471;-79
2022/12/23 07:48:17;;;;;;;1.10;1.00;;;10.50;99.90;;;;;;6179703;23;20436;-79
2022/12/23 07:50:44;;;;;;;0.93;0.83;;;10.40;99.90;;;;;;6181645;23;20415;-75
2022/12/23 07:53:11;;;;;;;1.10;0.90;;;10.40;99.90;;;;;;6179585;23;20410;-72
2022/12/23 07:55:38;;;;;;;1.00;0.87;;;10.30;99.90;;;;;;6178926;23;20444;-72
2022/12/23 07:58:05;;;;;;;1.10;0.97;;;10.40;99.90;;;;;;6179216;23;20508;-75
2022/12/23 08:00:33;;;;;;;0.90;0.70;;;10.40;99.90;;;;;;6178975;23;20422;-73
2022/12/23 08:03:00;;;;;;;1.00;0.70;;;10.40;99.90;;;;;;6179128;23;20414;-73
2022/12/23 08:05:27;;;;;;;1.07;0.80;;;10.40;99.90;;;;;;6178782;23;20960;-85
2022/12/23 08:07:54;;;;;;;0.80;0.70;;;10.50;99.90;;;;;;6180033;23;20418;-83
2022/12/23 08:10:21;;;;;;;1.27;1.00;;;10.50;99.90;;;;;;6180280;23;21012;-86
2022/12/23 08:12:48;;;;;;;1.90;0.80;;;10.50;99.90;;;;;;6180818;23;20420;-89
2022/12/23 08:15:15;;;;;;;1.30;0.97;;;10.60;99.90;;;;;;6179853;23;20891;-89
2022/12/23 08:17:43;;;;;;;0.93;0.80;;;10.50;99.90;;;;;;6172881;23;20426;-81
2022/12/23 08:20:11;;;;;;;1.17;0.80;;;10.50;99.90;;;;;;6174644;23;20431;-82
2022/12/23 08:22:38;;;;;;;0.90;0.80;;;10.50;99.90;;;;;;6175579;23;20427;-82
2022/12/23 08:25:13;;;;;;;1.03;0.80;;;10.50;99.90;;;;;;6176180;23;20500;-80
2022/12/23 08:27:39;;;;;;;4.20;0.80;;;10.60;99.90;;;;;;6175722;23;20987;-83
2022/12/23 08:30:09;;;;;;;1.23;0.90;;;10.70;99.90;;;;;;6175454;23;20833;-74
2022/12/23 08:32:37;;;;;;;1.17;0.93;;;10.70;99.90;;;;;;6176632;23;20452;-75
2022/12/23 08:35:06;;;;;;;1.43;0.70;;;10.60;99.90;;;;;;6176759;23;21157;-74
2022/12/23 08:37:33;;;;;;;0.80;0.70;;;10.70;99.90;;;;;;6176694;23;20404;-73
2022/12/23 08:40:00;;;;;;;0.90;0.70;;;10.60;99.90;;;;;;6176486;23;20502;-73
2022/12/23 08:42:27;;;;;;;1.40;0.90;;;10.60;99.90;;;;;;6175150;23;20749;-73
2022/12/23 08:44:54;;;;;;;1.80;0.80;;;10.70;99.90;;;;;;6175825;23;20426;-72
2022/12/23 08:47:21;;;;;;;0.93;0.80;;;10.70;99.90;;;;;;6176191;23;20419;-74
2022/12/23 08:49:48;;;;;;;1.17;0.80;;;10.80;99.90;;;;;;6176439;23;20906;-73
2022/12/23 08:52:16;;;;;;;0.80;0.80;;;10.80;99.90;;;;;;6176125;23;21006;-75
2022/12/23 08:54:43;;;;;;;1.40;1.00;;;10.80;99.90;;;;;;6176105;23;20527;-72
2022/12/23 08:57:10;;;;;;;0.90;0.77;;;11.00;99.90;;;;;;6175278;23;20494;-75
2022/12/23 08:59:36;;;;;;;1.50;0.90;;;11.00;99.90;;;;;;6175658;23;20408;-72
2022/12/23 09:02:03;;;;;;;1.37;0.80;;;11.00;99.90;;;;;;6175962;23;20408;-72
2022/12/23 09:04:30;;;;;;;0.90;0.77;;;11.00;99.90;;;;;;6175630;23;20478;-73
2022/12/23 09:06:57;;;;;;;1.00;0.90;;;11.00;99.90;;;;;;6175461;23;20491;-78
2022/12/23 09:09:25;;;;;;;1.50;0.77;;;10.90;99.90;;;;;;6176117;23;21000;-75
2022/12/23 09:11:55;;;;;;;1.70;0.93;;;10.80;99.90;;;;;;6175940;23;20411;-75
2022/12/23 09:14:22;;;;;;;1.00;0.90;;;10.80;99.90;;;;;;6177068;23;20393;-73
2022/12/23 09:16:50;;;;;;;1.23;0.90;;;10.80;99.90;;;;;;6176324;23;20470;-74
2022/12/23 09:19:17;;;;;;;0.90;0.60;;;10.80;99.90;;;;;;6176395;23;20504;-73
2022/12/23 09:21:44;;;;;;;2.17;0.90;;;10.70;99.90;;;;;;6176766;23;20459;-76
2022/12/23 09:24:11;;;;;;;3.10;0.97;;;10.70;99.90;;;;;;6176581;23;20443;-75
2022/12/23 09:26:43;;;;;;;1.10;1.00;;;10.70;99.90;;;;;;6177047;23;20964;-85
2022/12/23 09:29:10;;;;;;;5.27;0.80;;;10.80;99.90;;;;;;6175811;23;20446;-74
2022/12/23 09:31:38;;;;;;;0.90;0.80;;;10.80;99.90;;;;;;6175686;23;20422;-74
2022/12/23 09:34:20;;;;;;;1.10;1.00;;;11.00;99.90;;;;;;6176154;23;20451;-74
2022/12/23 09:36:47;;;;;;;1.60;1.07;;;11.00;99.90;;;;;;6176172;23;20952;-72
2022/12/23 09:39:14;;;;;;;1.20;1.00;;;11.00;99.90;;;;;;6176522;23;20456;-72
2022/12/23 09:42:03;;;;;;;1.23;0.90;;;11.00;99.90;;;;;;6176197;23;20396;-72
2022/12/23 09:44:55;;;;;;;1.20;0.90;;;11.00;99.90;;;;;;6175997;23;20423;-84
2022/12/23 09:47:30;;;;;;;0.90;0.80;;;11.00;99.90;;;;;;6149589;23;20729;-85
2022/12/23 09:50:07;;;;;;;0.80;0.70;;;11.10;99.90;;;;;;6176335;23;20445;-73
2022/12/23 09:52:40;;;;;;;1.20;0.80;;;11.10;99.90;;;;;;6175744;23;20920;-72
2022/12/23 09:55:10;;;;;;;1.50;1.10;;;11.10;99.90;;;;;;6176214;23;20475;-73
2022/12/23 09:57:46;;;;;;;1.60;1.00;;;11.20;99.90;;;;;;6175506;23;20946;-74
2022/12/23 10:00:15;;;;;;;1.40;1.00;;;11.20;99.90;;;;;;6176253;23;20388;-75
2022/12/23 10:02:54;;;;;;;1.37;1.27;;;11.30;99.90;;;;;;6176346;23;20408;-72
2022/12/23 10:05:30;;;;;;;1.00;0.90;;;11.30;99.90;;;;;;6176464;23;20384;-73
2022/12/23 10:08:03;;;;;;;0.87;0.70;;;11.30;99.90;;;;;;6176415;23;20432;-82
2022/12/23 10:10:35;;;;;;;1.07;0.80;;;11.30;99.90;;;;;;6175994;23;20420;-74
2022/12/23 10:13:06;;;;;;;1.20;0.90;;;11.30;99.90;;;;;;6176396;23;20392;-75
2022/12/23 10:15:47;;;;;;;1.20;0.80;;;11.30;99.90;;;;;;6175908;23;20432;-73
2022/12/23 10:18:20;;;;;;;1.10;0.80;;;11.40;99.90;;;;;;6175743;23;20800;-74
2022/12/23 10:20:52;;;;;;;1.53;1.00;;;11.40;99.90;;;;;;6175785;23;21038;-71
2022/12/23 10:23:28;;;;;;;4.00;1.17;;;11.40;99.90;;;;;;6176057;23;20423;-72
2022/12/23 10:25:56;;;;;;;0.90;0.80;;;11.40;99.90;;;;;;6176689;23;20751;-75
2022/12/23 10:28:24;;;;;;;2.70;0.90;;;11.40;99.90;;;;;;6175301;23;20545;-77
2022/12/23 10:31:02;;;;;;;1.20;1.10;;;11.30;99.90;;;;;;6175377;23;20455;-77
2022/12/23 10:33:58;;;;;;;2.70;1.40;;;11.60;99.90;;;;;;6174937;23;20415;-76
2022/12/23 10:39:24;;;;;;;1.03;0.90;;;11.40;99.90;;;;;;6176884;23;20419;-73
2022/12/23 10:42:01;;;;;;;0.90;0.77;;;11.40;99.90;;;;;;6175638;23;20440;-71
2022/12/23 10:45:05;;;;;;;1.20;0.90;;;11.40;99.90;;;;;;6175866;23;20917;-71
2022/12/23 10:47:46;;;;;;;1.30;0.97;;;11.50;99.90;;;;;;6179970;23;20410;-74
2022/12/23 10:53:28;;;;;;;1.20;1.10;;;11.30;99.90;;;;;;6179657;23;20415;-72
2022/12/23 10:55:56;;;;;;;1.13;1.03;;;11.10;99.90;;;;;;6173877;23;20511;-76
2022/12/23 10:58:25;;;;;;;1.30;0.90;;;11.00;99.90;;;;;;6178431;23;20479;-78
2022/12/23 11:00:55;;;;;;;1.10;0.90;;;10.90;99.90;;;;;;6178708;23;20419;-77
2022/12/23 11:03:31;;;;;;;2.73;1.07;;;10.80;99.90;;;;;;6177227;23;20409;-77
2022/12/23 11:06:01;;;;;;;1.83;1.03;;;10.80;99.90;;;;;;6177523;23;20443;-77
2022/12/23 11:08:31;;;;;;;1.23;0.97;;;10.80;99.90;;;;;;6176036;23;20677;-74
2022/12/23 11:11:00;;;;;;;1.37;1.00;;;10.90;99.90;;;;;;6175559;23;21030;-74
2022/12/23 11:13:45;;;;;;;2.07;1.30;;;11.00;99.90;;;;;;6176235;23;20408;-77
2022/12/23 11:16:18;;;;;;;2.23;1.30;;;11.10;99.90;;;;;;6174866;23;20510;-75
2022/12/23 11:19:05;;;;;;;1.67;1.13;;;11.00;99.90;;;;;;6175569;23;20981;-77
2022/12/23 11:21:55;;;;;;;2.47;1.60;;;11.20;99.90;;;;;;6176911;23;20862;-73
2022/12/23 11:24:23;;;;;;;1.63;1.20;;;11.20;99.90;;;;;;6175729;23;20380;-71
2022/12/23 11:26:58;;;;;;;4.67;1.20;;;11.20;99.90;;;;;;6174866;23;20487;-72
2022/12/23 11:29:31;;;;;;;1.47;1.20;;;11.40;99.90;;;;;;6174869;23;20438;-71
2022/12/23 11:32:01;;;;;;;1.73;1.30;;;11.50;99.90;;;;;;6176153;23;20406;-73
2022/12/23 11:34:35;;;;;;;2.20;1.20;;;11.40;99.90;;;;;;6175760;23;20404;-71
2022/12/23 11:37:02;;;;;;;3.20;1.70;;;11.40;99.90;;;;;;6175452;23;20464;-72
2022/12/23 11:39:31;;;;;;;2.43;1.00;;;11.30;99.90;;;;;;6175160;23;20507;-70
2022/12/23 11:42:09;;;;;;;1.67;1.10;;;11.30;99.90;;;;;;6175367;23;20412;-70
2022/12/23 11:44:40;;;;;;;2.83;1.37;;;11.30;99.90;;;;;;6175896;23;20414;-71
2022/12/23 11:47:25;;;;;;;1.60;1.20;;;11.40;99.90;;;;;;6175405;23;20882;-73
2022/12/23 11:49:55;;;;;;;1.87;1.13;;;11.30;99.90;;;;;;6175483;23;20419;-73
2022/12/23 11:52:28;;;;;;;1.20;1.00;;;11.30;99.90;;;;;;6175944;23;20440;-74
2022/12/23 11:54:57;;;;;;;1.10;1.00;;;11.30;99.90;;;;;;6174936;23;20736;-73
2022/12/23 11:57:32;;;;;;;1.40;1.00;;;11.40;99.90;;;;;;6174502;23;20405;-71
2022/12/23 12:00:05;;;;;;;1.00;0.80;;;11.50;99.90;;;;;;6174779;23;20387;-73
2022/12/23 12:02:38;;;;;;;1.17;0.87;;;11.50;99.90;;;;;;6174910;23;20415;-75
2022/12/23 12:05:16;;;;;;;1.10;1.00;;;11.50;99.90;;;;;;6175155;23;20419;-72
2022/12/23 12:07:45;;;;;;;1.00;0.80;;;11.60;99.90;;;;;;6175450;23;20436;-72
2022/12/23 12:10:18;;;;;;;1.30;1.13;;;11.60;99.90;;;;;;6173614;23;20431;-71
2022/12/23 12:12:46;;;;;;;4.20;1.20;;;11.60;99.90;;;;;;6175149;23;20164;-74
2022/12/23 12:15:28;;;;;;;1.93;0.80;;;11.60;99.90;;;;;;6174851;23;20747;-71
2022/12/23 12:17:58;;;;;;;2.23;0.90;;;11.60;99.90;;;;;;6174346;23;20855;-71
2022/12/23 12:20:35;;;;;;;1.40;0.90;;;11.60;99.90;;;;;;6171087;23;20932;-71
2022/12/23 12:23:08;;;;;;;1.50;1.10;;;11.60;99.90;;;;;;6174598;23;20400;-72
2022/12/23 12:25:41;;;;;;;1.50;1.00;;;11.80;99.90;;;;;;6175349;23;20392;-72
2022/12/23 12:28:12;;;;;;;1.10;1.00;;;11.80;99.90;;;;;;6174134;23;20506;-71
2022/12/23 12:30:44;;;;;;;1.93;1.20;;;11.70;99.90;;;;;;6174072;23;21028;-85
2022/12/23 12:33:17;;;;;;;1.30;1.20;;;11.70;99.90;;;;;;6175653;23;20476;-75
2022/12/23 12:35:48;;;;;;;3.57;1.10;;;11.60;99.90;;;;;;6175228;23;20433;-77
2022/12/23 12:38:21;;;;;;;3.40;1.20;;;11.60;99.90;;;;;;6175434;23;20458;-77
2022/12/23 12:40:53;;;;;;;2.80;1.37;;;11.60;99.90;;;;;;6175156;23;20552;-77
2022/12/23 12:43:27;;;;;;;2.10;1.00;;;11.50;99.90;;;;;;6175042;23;20384;-75
2022/12/23 12:46:10;;;;;;;1.30;0.87;;;11.50;99.90;;;;;;6175471;23;20405;-71
2022/12/23 12:48:46;;;;;;;1.40;1.27;;;11.40;99.90;;;;;;6175071;23;20428;-76
2022/12/23 12:51:21;;;;;;;0.87;0.77;;;11.30;99.90;;;;;;6174496;23;21020;-74
2022/12/23 12:53:57;;;;;;;1.20;0.87;;;11.10;99.90;;;;;;6174828;23;20566;-73
2022/12/23 12:56:33;;;;;;;2.30;0.93;;;11.30;99.90;;;;;;6174290;23;20534;-78
2022/12/23 12:59:00;;;;;;;1.37;0.90;;;11.20;99.90;;;;;;6174777;23;20478;-73
2022/12/23 13:01:42;;;;;;;1.73;0.80;;;11.10;99.90;;;;;;6175142;23;20412;-74
2022/12/23 13:04:42;;;;;;;1.43;0.93;;;11.00;99.90;;;;;;6175349;23;20396;-75
2022/12/23 13:07:17;;;;;;;1.37;1.20;;;10.90;99.90;;;;;;6172981;23;20415;-74
2022/12/23 13:09:57;;;;;;;1.93;0.90;;;10.90;99.90;;;;;;6174920;23;20443;-78
2022/12/23 13:12:39;;;;;;;1.60;1.27;;;10.90;99.90;;;;;;6174176;23;20424;-76
2022/12/23 13:15:15;;;;;;;1.40;1.03;;;10.80;99.90;;;;;;6174610;23;20742;-77
2022/12/23 13:17:48;;;;;;;2.13;0.90;;;10.80;99.90;;;;;;6175403;23;20447;-77
2022/12/23 13:20:25;;;;;;;1.17;0.90;;;10.80;99.90;;;;;;6177250;23;20432;-77
2022/12/23 13:23:05;;;;;;;1.00;0.83;;;10.70;99.90;;;;;;6176439;23;20861;-72
2022/12/23 13:25:39;;;;;;;4.67;1.73;;;10.70;99.90;;;;;;6175918;23;20380;-72
2022/12/23 13:28:20;;;;;;;5.13;1.30;;;10.70;99.90;;;;;;6173050;23;20523;-70
2022/12/23 13:30:55;;;;;;;1.10;0.87;;;10.70;99.90;;;;;;6175706;23;20406;-73
2022/12/23 13:33:28;;;;;;;72.57;48.50;;;10.70;99.90;;;;;;6175193;23;20399;-69
2022/12/23 13:36:07;;;;;;;2.07;1.33;;;10.70;99.90;;;;;;6175292;23;21008;-71
2022/12/23 13:38:51;;;;;;;1.60;1.20;;;10.80;99.90;;;;;;6176454;23;20388;-77
2022/12/23 13:41:40;;;;;;;2.53;1.70;;;10.90;99.90;;;;;;6176328;23;20473;-77
2022/12/23 13:44:09;;;;;;;2.33;1.20;;;10.80;99.90;;;;;;6190071;23;20404;-72
2022/12/23 13:46:52;;;;;;;1.70;1.40;;;10.70;99.90;;;;;;6176654;23;20400;-76
2022/12/23 13:49:29;;;;;;;2.27;1.13;;;10.60;99.90;;;;;;6175629;23;20396;-72